Impacts TAF Board INFO
FOR SITUATIONAL AWARENESS. NOT TO BE USED FOR FLIGHT PLANNING PURPOSES.
IDs:

KPDX - Portland Intl Arpt, OR, US

Issued at 0520 UTC 28 Mar 2017
Updated at 0802 UTC 28 Mar 2017
Potential Impact None Slight Moderate High
Time0753Z 28/09Z 28/10Z 28/11Z 28/12Z 28/13Z 28/14Z 28/15Z 28/16Z 28/17Z 28/18Z 28/19Z 28/20Z 28/21Z
Type OBS PRVL PRVL PRVL PRVL PRVL PRVL PRVL PRVL PRVL PRVL PRVL PRVL PRVL
VIS 10 >6 >6 >6 >6 >6 >6 >6 >6 >6 >6 >6 >6 >6
CIG 30 70 70 70 40 40 40 40 40 40 40 50 50 50
Cover OVC OVC OVC OVC OVC OVC OVC OVC OVC OVC OVC OVC OVC OVC
FltCat MVFR VFR VFR VFR VFR VFR VFR VFR VFR VFR VFR VFR VFR VFR
WX -RA -- -- -- -RA -RA -RA -RA -RA -RA -RA -- -- --
WDir 200 220 220 220 150 150 150 150 150 150 150 140 140 140
WSpd 6 6 6 6 5 5 5 5 5 5 5 6 6 6
WGst -- -- -- -- -- -- -- -- -- -- -- -- -- --

Raw TAF
KPDX 280520Z 2806/2906 22006KT P6SM SCT040 BKN070 OVC100
  FM281200 15005KT P6SM -RA BKN040 OVC060
  FM281900 14006KT P6SM BKN050 OVC080
  FM290300 13008KT P6SM -RA OVC035


Raw METAR
KPDX 280753Z 20006KT 10SM -RA SCT021 BKN030 OVC035 08/06 A3036 RMK AO2 DZE49RAB49 SLP279 P0000 T00830056 401280072
KPDX 280653Z 18006KT 10SM -DZ FEW020 SCT040 OVC050 08/06 A3034 RMK AO2 RAE50DZB50 SLP274 P0000 T00830056
KPDX 280553Z 21007KT 10SM -RA FEW025 BKN036 OVC043 08/05 A3035 RMK AO2 SLP275 P0000 60000 T00830050 10122 20083 51015

METAR Board
Radar Display
Forecast Discussion

FOR SITUATIONAL AWARENESS. NOT TO BE USED FOR FLIGHT PLANNING PURPOSES.

Page loaded:  08:02 UTC  |   01:02 AM Pacific  |   02:02 AM Mountain  |   03:02 AM Central  |   04:02 AM Eastern

 

ADVISORIES

FORECASTS

FORECASTS

OBSERVATIONS

USER TOOLS

ABOUT US